sensor_id;sensor_type;location;lat;lon;timestamp;pressure;altitude;pressure_sealevel;temperature;humidity
69911;BME280;63555;49.920;17.868;2023-01-29T00:04:02;99738.81;;;-2.83;89.75
69911;BME280;63555;49.920;17.868;2023-01-29T00:09:02;99731.91;;;-2.84;89.67
69911;BME280;63555;49.920;17.868;2023-01-29T00:14:02;99735.41;;;-2.90;89.90
69911;BME280;63555;49.920;17.868;2023-01-29T00:19:03;99732.81;;;-2.92;89.46
69911;BME280;63555;49.920;17.868;2023-01-29T00:24:04;99744.09;;;-3.08;88.91
69911;BME280;63555;49.920;17.868;2023-01-29T00:29:05;99751.00;;;-3.10;89.96
69911;BME280;63555;49.920;17.868;2023-01-29T00:34:05;99742.41;;;-3.13;89.29
69911;BME280;63555;49.920;17.868;2023-01-29T00:39:05;99747.56;;;-3.15;90.21
69911;BME280;63555;49.920;17.868;2023-01-29T00:44:09;99743.28;;;-3.16;89.99
69911;BME280;63555;49.920;17.868;2023-01-29T00:49:28;99745.84;;;-3.16;89.89
69911;BME280;63555;49.920;17.868;2023-01-29T00:54:29;99751.88;;;-3.18;89.32
69911;BME280;63555;49.920;17.868;2023-01-29T00:59:29;99751.03;;;-3.21;89.37
69911;BME280;63555;49.920;17.868;2023-01-29T01:04:30;99759.63;;;-3.22;89.71
69911;BME280;63555;49.920;17.868;2023-01-29T01:09:30;99759.59;;;-3.15;89.94
69911;BME280;63555;49.920;17.868;2023-01-29T01:14:49;99755.31;;;-3.13;89.48
69911;BME280;63555;49.920;17.868;2023-01-29T01:19:49;99771.63;;;-3.11;89.43
69911;BME280;63555;49.920;17.868;2023-01-29T01:24:50;99757.91;;;-3.16;89.34
69911;BME280;63555;49.920;17.868;2023-01-29T01:29:50;99753.59;;;-3.19;89.60
69911;BME280;63555;49.920;17.868;2023-01-29T01:34:51;99752.72;;;-3.13;89.93
69911;BME280;63555;49.920;17.868;2023-01-29T01:39:51;99738.09;;;-3.08;89.95
69911;BME280;63555;49.920;17.868;2023-01-29T01:45:02;99740.63;;;-3.02;89.92
69911;BME280;63555;49.920;17.868;2023-01-29T01:50:17;99728.56;;;-2.99;89.72
69911;BME280;63555;49.920;17.868;2023-01-29T01:55:22;99715.66;;;-2.96;89.44
69911;BME280;63555;49.920;17.868;2023-01-29T02:00:24;99714.75;;;-2.89;89.54
69911;BME280;63555;49.920;17.868;2023-01-29T02:05:26;99708.69;;;-2.81;89.19
69911;BME280;63555;49.920;17.868;2023-01-29T02:10:46;99701.75;;;-2.76;89.38
69911;BME280;63555;49.920;17.868;2023-01-29T02:15:47;99704.31;;;-2.75;89.27
69911;BME280;63555;49.920;17.868;2023-01-29T02:26:39;99700.91;;;-2.77;89.11
69911;BME280;63555;49.920;17.868;2023-01-29T02:31:55;99687.13;;;-2.74;88.95
69911;BME280;63555;49.920;17.868;2023-01-29T02:37:06;99680.22;;;-2.72;88.97
69911;BME280;63555;49.920;17.868;2023-01-29T02:42:40;99669.94;;;-2.78;88.73
69911;BME280;63555;49.920;17.868;2023-01-29T02:48:01;99674.25;;;-2.79;88.75
69911;BME280;63555;49.920;17.868;2023-01-29T02:53:07;99682.84;;;-2.77;89.30
69911;BME280;63555;49.920;17.868;2023-01-29T02:58:21;99684.53;;;-2.74;88.97
69911;BME280;63555;49.920;17.868;2023-01-29T03:03:29;99693.13;;;-2.72;89.22
69911;BME280;63555;49.920;17.868;2023-01-29T03:14:05;99698.28;;;-2.74;89.05
69911;BME280;63555;49.920;17.868;2023-01-29T03:19:19;99715.53;;;-2.76;88.35
69911;BME280;63555;49.920;17.868;2023-01-29T03:24:52;99719.84;;;-2.79;88.52
69911;BME280;63555;49.920;17.868;2023-01-29T03:30:15;99722.44;;;-2.82;88.26
69911;BME280;63555;49.920;17.868;2023-01-29T03:35:39;99719.88;;;-2.84;87.92
69911;BME280;63555;49.920;17.868;2023-01-29T03:40:52;99719.88;;;-2.84;88.25
69911;BME280;63555;49.920;17.868;2023-01-29T03:51:25;99701.75;;;-2.75;88.57
69911;BME280;63555;49.920;17.868;2023-01-29T03:56:42;99706.91;;;-2.73;88.02
69911;BME280;63555;49.920;17.868;2023-01-29T04:01:49;99706.00;;;-2.69;88.33
69911;BME280;63555;49.920;17.868;2023-01-29T04:06:51;99696.50;;;-2.66;88.25
69911;BME280;63555;49.920;17.868;2023-01-29T04:12:01;99688.75;;;-2.64;88.33
69911;BME280;63555;49.920;17.868;2023-01-29T04:17:11;99682.75;;;-2.60;88.45
69911;BME280;63555;49.920;17.868;2023-01-29T04:22:26;99681.00;;;-2.61;88.09
69911;BME280;63555;49.920;17.868;2023-01-29T04:38:22;99650.22;;;-2.87;87.57
69911;BME280;63555;49.920;17.868;2023-01-29T04:43:42;99633.91;;;-2.91;88.00
69911;BME280;63555;49.920;17.868;2023-01-29T04:54:21;99622.75;;;-2.93;88.23
69911;BME280;63555;49.920;17.868;2023-01-29T04:59:32;99606.38;;;-2.92;88.53
69911;BME280;63555;49.920;17.868;2023-01-29T05:04:34;99605.53;;;-2.91;88.56
69911;BME280;63555;49.920;17.868;2023-01-29T05:09:38;99608.06;;;-2.88;88.23
69911;BME280;63555;49.920;17.868;2023-01-29T05:14:41;99617.50;;;-2.83;88.05
69911;BME280;63555;49.920;17.868;2023-01-29T05:19:43;99619.28;;;-2.90;87.97
69911;BME280;63555;49.920;17.868;2023-01-29T05:24:44;99624.44;;;-2.92;88.33
69911;BME280;63555;49.920;17.868;2023-01-29T05:29:46;99628.75;;;-2.91;88.45
69911;BME280;63555;49.920;17.868;2023-01-29T05:34:46;99614.97;;;-2.91;88.15
69911;BME280;63555;49.920;17.868;2023-01-29T05:39:47;99613.25;;;-2.91;88.30
69911;BME280;63555;49.920;17.868;2023-01-29T05:44:47;99614.16;;;-2.93;88.32
69911;BME280;63555;49.920;17.868;2023-01-29T05:49:47;99611.56;;;-2.93;88.32
69911;BME280;63555;49.920;17.868;2023-01-29T05:54:48;99613.25;;;-2.91;88.05
69911;BME280;63555;49.920;17.868;2023-01-29T05:59:48;99614.13;;;-2.90;87.84
69911;BME280;63555;49.920;17.868;2023-01-29T06:04:50;99628.78;;;-2.97;87.75
69911;BME280;63555;49.920;17.868;2023-01-29T06:09:51;99631.41;;;-3.00;87.89
69911;BME280;63555;49.920;17.868;2023-01-29T06:14:52;99632.25;;;-2.98;88.20
69911;BME280;63555;49.920;17.868;2023-01-29T06:19:52;99630.53;;;-3.02;87.74
69911;BME280;63555;49.920;17.868;2023-01-29T06:24:52;99619.44;;;-3.13;87.72
69911;BME280;63555;49.920;17.868;2023-01-29T06:29:53;99634.09;;;-3.18;87.99
69911;BME280;63555;49.920;17.868;2023-01-29T06:34:53;99636.72;;;-3.24;87.88
69911;BME280;63555;49.920;17.868;2023-01-29T06:39:53;99640.19;;;-3.28;88.00
69911;BME280;63555;49.920;17.868;2023-01-29T06:44:54;99640.19;;;-3.30;88.12
69911;BME280;63555;49.920;17.868;2023-01-29T06:49:55;99653.09;;;-3.33;87.24
69911;BME280;63555;49.920;17.868;2023-01-29T06:54:55;99650.50;;;-3.27;88.32
69911;BME280;63555;49.920;17.868;2023-01-29T06:59:55;99661.63;;;-3.23;88.14
69911;BME280;63555;49.920;17.868;2023-01-29T07:04:56;99664.19;;;-3.15;88.08
69911;BME280;63555;49.920;17.868;2023-01-29T07:09:56;99665.88;;;-3.14;88.20
69911;BME280;63555;49.920;17.868;2023-01-29T07:14:57;99665.81;;;-3.01;89.10
69911;BME280;63555;49.920;17.868;2023-01-29T07:19:57;99668.25;;;-2.84;89.39
69911;BME280;63555;49.920;17.868;2023-01-29T07:24:57;99673.44;;;-2.85;88.10
69911;BME280;63555;49.920;17.868;2023-01-29T07:29:58;99676.91;;;-2.91;88.72
69911;BME280;63555;49.920;17.868;2023-01-29T07:34:58;99667.44;;;-2.89;88.97
69911;BME280;63555;49.920;17.868;2023-01-29T07:39:58;99661.38;;;-2.82;88.67
69911;BME280;63555;49.920;17.868;2023-01-29T07:44:59;99656.06;;;-2.65;89.68
69911;BME280;63555;49.920;17.868;2023-01-29T07:49:59;99670.44;;;-2.32;90.42
69911;BME280;63555;49.920;17.868;2023-01-29T07:54:59;99667.56;;;-2.03;90.26
69911;BME280;63555;49.920;17.868;2023-01-29T08:00:00;99677.63;;;-1.77;90.26
69911;BME280;63555;49.920;17.868;2023-01-29T08:05:00;99679.91;;;-1.48;90.94
69911;BME280;63555;49.920;17.868;2023-01-29T08:10:00;99677.78;;;-1.17;90.79
69911;BME280;63555;49.920;17.868;2023-01-29T08:15:01;99692.13;;;-0.97;90.76
69911;BME280;63555;49.920;17.868;2023-01-29T08:20:03;99685.00;;;-0.79;90.43
69911;BME280;63555;49.920;17.868;2023-01-29T08:25:03;99675.31;;;-0.67;90.30
69911;BME280;63555;49.920;17.868;2023-01-29T08:30:05;99683.38;;;-0.85;89.50
69911;BME280;63555;49.920;17.868;2023-01-29T08:35:06;99697.19;;;-0.86;90.55
69911;BME280;63555;49.920;17.868;2023-01-29T08:40:07;99698.00;;;-0.82;90.45
69911;BME280;63555;49.920;17.868;2023-01-29T08:45:10;99699.03;;;-0.96;90.28
69911;BME280;63555;49.920;17.868;2023-01-29T08:50:10;99718.06;;;-1.00;90.17
69911;BME280;63555;49.920;17.868;2023-01-29T08:55:11;99714.72;;;-1.06;90.30
69911;BME280;63555;49.920;17.868;2023-01-29T09:00:12;99706.91;;;-1.03;90.34
69911;BME280;63555;49.920;17.868;2023-01-29T09:05:14;99701.22;;;-0.67;92.14
69911;BME280;63555;49.920;17.868;2023-01-29T09:10:14;99694.88;;;1.30;95.00
69911;BME280;63555;49.920;17.868;2023-01-29T09:15:15;99674.63;;;3.86;95.53
69911;BME280;63555;49.920;17.868;2023-01-29T09:20:16;99659.16;;;5.87;96.34
69911;BME280;63555;49.920;17.868;2023-01-29T09:25:16;99647.28;;;7.35;96.51
69911;BME280;63555;49.920;17.868;2023-01-29T09:30:17;99659.16;;;8.30;96.23
69911;BME280;63555;49.920;17.868;2023-01-29T09:35:17;99669.25;;;8.88;94.99
69911;BME280;63555;49.920;17.868;2023-01-29T09:40:25;99659.84;;;9.63;92.66
69911;BME280;63555;49.920;17.868;2023-01-29T09:45:28;99654.25;;;10.13;90.52
69911;BME280;63555;49.920;17.868;2023-01-29T09:50:34;99655.06;;;11.00;90.14
69911;BME280;63555;49.920;17.868;2023-01-29T09:55:44;99648.84;;;11.69;89.22
69911;BME280;63555;49.920;17.868;2023-01-29T10:06:44;99625.19;;;12.71;87.63
69911;BME280;63555;49.920;17.868;2023-01-29T10:12:15;99619.75;;;12.85;86.82
69911;BME280;63555;49.920;17.868;2023-01-29T10:33:40;99555.19;;;12.38;85.21
69911;BME280;63555;49.920;17.868;2023-01-29T10:38:45;99541.06;;;11.74;80.84
69911;BME280;63555;49.920;17.868;2023-01-29T10:49:26;99533.59;;;10.18;84.33
69911;BME280;63555;49.920;17.868;2023-01-29T11:00:11;99516.94;;;10.87;89.39
69911;BME280;63555;49.920;17.868;2023-01-29T11:05:22;99502.34;;;11.48;87.97
69911;BME280;63555;49.920;17.868;2023-01-29T11:10:24;99500.44;;;11.37;83.73
69911;BME280;63555;49.920;17.868;2023-01-29T11:15:29;99506.53;;;10.98;85.94
69911;BME280;63555;49.920;17.868;2023-01-29T11:20:32;99494.44;;;11.61;86.42
69911;BME280;63555;49.920;17.868;2023-01-29T11:25:35;99480.41;;;12.11;85.60
69911;BME280;63555;49.920;17.868;2023-01-29T11:30:38;99478.06;;;12.32;84.98
69911;BME280;63555;49.920;17.868;2023-01-29T11:35:40;99464.22;;;12.28;85.03
69911;BME280;63555;49.920;17.868;2023-01-29T11:40:42;99466.00;;;12.28;83.45
69911;BME280;63555;49.920;17.868;2023-01-29T11:45:43;99455.50;;;11.25;81.52
69911;BME280;63555;49.920;17.868;2023-01-29T11:50:51;99444.94;;;10.03;80.98
69911;BME280;63555;49.920;17.868;2023-01-29T11:55:51;99440.28;;;8.28;82.82
69911;BME280;63555;49.920;17.868;2023-01-29T12:00:52;99445.31;;;8.48;86.98
69911;BME280;63555;49.920;17.868;2023-01-29T12:06:18;99436.97;;;8.09;84.71
69911;BME280;63555;49.920;17.868;2023-01-29T12:11:32;99436.59;;;7.50;86.04
69911;BME280;63555;49.920;17.868;2023-01-29T12:16:43;99433.94;;;7.17;86.85
69911;BME280;63555;49.920;17.868;2023-01-29T12:21:50;99424.44;;;7.15;87.64
69911;BME280;63555;49.920;17.868;2023-01-29T12:27:30;99414.16;;;6.76;85.69
69911;BME280;63555;49.920;17.868;2023-01-29T12:32:47;99412.06;;;6.48;85.98
69911;BME280;63555;49.920;17.868;2023-01-29T12:38:09;99407.00;;;6.26;85.90
69911;BME280;63555;49.920;17.868;2023-01-29T12:43:16;99422.84;;;5.46;85.98
69911;BME280;63555;49.920;17.868;2023-01-29T12:48:23;99416.63;;;4.67;85.25
69911;BME280;63555;49.920;17.868;2023-01-29T12:53:36;99422.06;;;3.96;87.19
69911;BME280;63555;49.920;17.868;2023-01-29T12:58:47;99409.47;;;3.83;89.02
69911;BME280;63555;49.920;17.868;2023-01-29T13:04:12;99398.09;;;3.63;88.76
69911;BME280;63555;49.920;17.868;2023-01-29T13:09:19;99391.97;;;3.15;88.85
69911;BME280;63555;49.920;17.868;2023-01-29T13:14:24;99379.91;;;3.13;89.96
69911;BME280;63555;49.920;17.868;2023-01-29T13:19:34;99380.94;;;2.84;88.51
69911;BME280;63555;49.920;17.868;2023-01-29T13:24:40;99381.25;;;2.75;89.95
69911;BME280;63555;49.920;17.868;2023-01-29T13:29:42;99371.16;;;2.91;90.96
69911;BME280;63555;49.920;17.868;2023-01-29T13:34:44;99358.38;;;3.08;91.40
69911;BME280;63555;49.920;17.868;2023-01-29T13:39:49;99360.41;;;3.00;91.13
69911;BME280;63555;49.920;17.868;2023-01-29T13:44:55;99345.19;;;2.36;88.78
69911;BME280;63555;49.920;17.868;2023-01-29T13:55:05;99345.13;;;1.55;88.84
69911;BME280;63555;49.920;17.868;2023-01-29T14:10:37;99345.56;;;0.78;88.49
69911;BME280;63555;49.920;17.868;2023-01-29T14:15:38;99352.38;;;0.50;89.24
69911;BME280;63555;49.920;17.868;2023-01-29T14:20:58;99349.47;;;0.28;89.57
69911;BME280;63555;49.920;17.868;2023-01-29T14:26:00;99343.06;;;0.07;89.40
69911;BME280;63555;49.920;17.868;2023-01-29T14:31:02;99337.31;;;-0.07;90.28
69911;BME280;63555;49.920;17.868;2023-01-29T14:36:05;99329.94;;;-0.24;89.69
69911;BME280;63555;49.920;17.868;2023-01-29T14:46:41;99333.25;;;-0.56;90.35
69911;BME280;63555;49.920;17.868;2023-01-29T14:51:43;99330.22;;;-0.76;90.27
69911;BME280;63555;49.920;17.868;2023-01-29T14:56:56;99327.19;;;-0.98;90.52
69911;BME280;63555;49.920;17.868;2023-01-29T15:02:18;99325.03;;;-1.19;90.72
69911;BME280;63555;49.920;17.868;2023-01-29T15:07:26;99341.81;;;-1.40;91.00
69911;BME280;63555;49.920;17.868;2023-01-29T15:12:39;99330.13;;;-1.61;90.80
69911;BME280;63555;49.920;17.868;2023-01-29T15:22:57;99318.69;;;-2.00;91.27
69911;BME280;63555;49.920;17.868;2023-01-29T15:27:58;99322.41;;;-2.18;91.27
69911;BME280;63555;49.920;17.868;2023-01-29T15:32:59;99316.66;;;-2.35;91.33
69911;BME280;63555;49.920;17.868;2023-01-29T15:38:13;99336.66;;;-2.49;91.47
69911;BME280;63555;49.920;17.868;2023-01-29T15:48:32;99332.69;;;-2.76;91.86
69911;BME280;63555;49.920;17.868;2023-01-29T15:53:47;99319.06;;;-2.88;91.74
69911;BME280;63555;49.920;17.868;2023-01-29T15:58:49;99336.44;;;-3.00;92.08
69911;BME280;63555;49.920;17.868;2023-01-29T16:03:51;99326.25;;;-3.11;92.32
69911;BME280;63555;49.920;17.868;2023-01-29T16:08:53;99324.56;;;-3.15;92.32
69911;BME280;63555;49.920;17.868;2023-01-29T16:13:54;99313.44;;;-3.18;92.24
69911;BME280;63555;49.920;17.868;2023-01-29T16:18:54;99308.34;;;-3.23;92.25
69911;BME280;63555;49.920;17.868;2023-01-29T16:23:57;99304.97;;;-3.30;92.29
69911;BME280;63555;49.920;17.868;2023-01-29T16:29:06;99299.03;;;-3.36;92.09
69911;BME280;63555;49.920;17.868;2023-01-29T16:39:36;99286.25;;;-3.48;92.05
69911;BME280;63555;49.920;17.868;2023-01-29T16:44:38;99290.59;;;-3.54;91.84
69911;BME280;63555;49.920;17.868;2023-01-29T16:54:42;99288.16;;;-3.66;92.13
69911;BME280;63555;49.920;17.868;2023-01-29T16:59:42;99282.19;;;-3.71;91.80
69911;BME280;63555;49.920;17.868;2023-01-29T17:04:45;99283.09;;;-3.76;91.97
69911;BME280;63555;49.920;17.868;2023-01-29T17:09:52;99297.75;;;-3.83;91.99
69911;BME280;63555;49.920;17.868;2023-01-29T17:14:58;99291.78;;;-3.88;91.98
69911;BME280;63555;49.920;17.868;2023-01-29T17:20:10;99292.72;;;-3.95;91.99
69911;BME280;63555;49.920;17.868;2023-01-29T17:25:14;99289.34;;;-4.02;91.86
69911;BME280;63555;49.920;17.868;2023-01-29T17:30:20;99289.41;;;-4.08;91.99
69911;BME280;63555;49.920;17.868;2023-01-29T17:35:21;99287.72;;;-4.12;91.99
69911;BME280;63555;49.920;17.868;2023-01-29T17:45:42;99281.00;;;-4.30;91.97
69911;BME280;63555;49.920;17.868;2023-01-29T17:50:44;99281.88;;;-4.35;92.23
69911;BME280;63555;49.920;17.868;2023-01-29T17:55:47;99269.88;;;-4.38;92.04
69911;BME280;63555;49.920;17.868;2023-01-29T18:00:49;99249.28;;;-4.33;92.08
69911;BME280;63555;49.920;17.868;2023-01-29T18:05:49;99250.03;;;-4.21;92.46
69911;BME280;63555;49.920;17.868;2023-01-29T18:10:50;99258.47;;;-4.03;92.62
69911;BME280;63555;49.920;17.868;2023-01-29T18:15:50;99253.16;;;-3.88;92.72
69911;BME280;63555;49.920;17.868;2023-01-29T18:20:50;99248.72;;;-3.75;92.67
69911;BME280;63555;49.920;17.868;2023-01-29T18:25:51;99258.91;;;-3.63;92.35
69911;BME280;63555;49.920;17.868;2023-01-29T18:30:53;99249.34;;;-3.54;92.60
69911;BME280;63555;49.920;17.868;2023-01-29T18:35:54;99241.53;;;-3.44;92.41
69911;BME280;63555;49.920;17.868;2023-01-29T18:41:02;99238.03;;;-3.37;92.63
69911;BME280;63555;49.920;17.868;2023-01-29T18:46:02;99228.50;;;-3.32;92.24
69911;BME280;63555;49.920;17.868;2023-01-29T18:51:03;99225.88;;;-3.28;92.22
69911;BME280;63555;49.920;17.868;2023-01-29T18:56:04;99234.38;;;-3.21;91.96
69911;BME280;63555;49.920;17.868;2023-01-29T19:01:08;99224.94;;;-3.22;91.47
69911;BME280;63555;49.920;17.868;2023-01-29T19:06:10;99219.72;;;-3.17;92.10
69911;BME280;63555;49.920;17.868;2023-01-29T19:11:11;99219.59;;;-3.08;92.24
69911;BME280;63555;49.920;17.868;2023-01-29T19:16:11;99213.47;;;-3.00;92.49
69911;BME280;63555;49.920;17.868;2023-01-29T19:21:14;99218.50;;;-2.92;92.36
69911;BME280;63555;49.920;17.868;2023-01-29T19:26:15;99208.94;;;-2.85;92.58
69911;BME280;63555;49.920;17.868;2023-01-29T19:31:15;99200.25;;;-2.78;92.51
69911;BME280;63555;49.920;17.868;2023-01-29T19:36:16;99188.28;;;-2.84;91.68
69911;BME280;63555;49.920;17.868;2023-01-29T19:41:16;99177.97;;;-2.84;91.92
69911;BME280;63555;49.920;17.868;2023-01-29T19:46:17;99179.69;;;-2.84;92.01
69911;BME280;63555;49.920;17.868;2023-01-29T19:51:17;99180.63;;;-2.89;91.78
69911;BME280;63555;49.920;17.868;2023-01-29T19:56:18;99178.91;;;-2.90;91.99
69911;BME280;63555;49.920;17.868;2023-01-29T20:01:20;99178.13;;;-2.95;92.29
69911;BME280;63555;49.920;17.868;2023-01-29T20:06:23;99179.03;;;-2.99;92.42
69911;BME280;63555;49.920;17.868;2023-01-29T20:11:24;99171.38;;;-3.03;92.09
69911;BME280;63555;49.920;17.868;2023-01-29T20:16:24;99165.47;;;-3.11;92.01
69911;BME280;63555;49.920;17.868;2023-01-29T20:21:25;99159.75;;;-3.33;90.65
69911;BME280;63555;49.920;17.868;2023-01-29T20:26:25;99159.09;;;-3.50;90.75
69911;BME280;63555;49.920;17.868;2023-01-29T20:31:26;99158.44;;;-3.65;90.48
69911;BME280;63555;49.920;17.868;2023-01-29T20:36:26;99155.09;;;-3.73;90.39
69911;BME280;63555;49.920;17.868;2023-01-29T20:41:27;99162.06;;;-3.81;90.67
69911;BME280;63555;49.920;17.868;2023-01-29T20:46:27;99157.81;;;-3.87;91.31
69911;BME280;63555;49.920;17.868;2023-01-29T20:51:27;99166.41;;;-3.86;91.11
69911;BME280;63555;49.920;17.868;2023-01-29T20:56:29;99151.72;;;-3.78;91.64
69911;BME280;63555;49.920;17.868;2023-01-29T21:01:30;99152.56;;;-3.76;91.58
69911;BME280;63555;49.920;17.868;2023-01-29T21:06:30;99147.38;;;-3.74;91.46
69911;BME280;63555;49.920;17.868;2023-01-29T21:11:30;99134.63;;;-3.85;90.84
69911;BME280;63555;49.920;17.868;2023-01-29T21:16:32;99124.53;;;-4.02;90.02
69911;BME280;63555;49.920;17.868;2023-01-29T21:21:33;99095.59;;;-4.24;89.71
69911;BME280;63555;49.920;17.868;2023-01-29T21:26:34;99093.22;;;-4.45;90.14
69911;BME280;63555;49.920;17.868;2023-01-29T21:31:37;99076.25;;;-4.63;90.63
69911;BME280;63555;49.920;17.868;2023-01-29T21:36:38;99084.06;;;-4.75;90.41
69911;BME280;63555;49.920;17.868;2023-01-29T21:41:38;99081.63;;;-4.87;90.47
69911;BME280;63555;49.920;17.868;2023-01-29T21:46:57;99072.31;;;-5.03;90.22
69911;BME280;63555;49.920;17.868;2023-01-29T21:51:57;99071.56;;;-5.13;90.54
69911;BME280;63555;49.920;17.868;2023-01-29T21:56:58;99071.59;;;-5.22;90.57
69911;BME280;63555;49.920;17.868;2023-01-29T22:01:59;99071.69;;;-5.34;90.54
69911;BME280;63555;49.920;17.868;2023-01-29T22:06:59;99069.16;;;-5.40;90.51
69911;BME280;63555;49.920;17.868;2023-01-29T22:11:59;99058.91;;;-5.47;90.49
69911;BME280;63555;49.920;17.868;2023-01-29T22:17:00;99055.53;;;-5.53;90.45
69911;BME280;63555;49.920;17.868;2023-01-29T22:22:01;99054.72;;;-5.61;90.49
69911;BME280;63555;49.920;17.868;2023-01-29T22:27:01;99039.38;;;-5.69;90.34
69911;BME280;63555;49.920;17.868;2023-01-29T22:32:02;99020.56;;;-5.74;90.37
69911;BME280;63555;49.920;17.868;2023-01-29T22:37:02;99018.91;;;-5.81;90.60
69911;BME280;63555;49.920;17.868;2023-01-29T22:42:02;99006.09;;;-5.87;90.83
69911;BME280;63555;49.920;17.868;2023-01-29T22:47:03;98992.50;;;-5.94;90.55
69911;BME280;63555;49.920;17.868;2023-01-29T22:52:03;98991.66;;;-5.96;90.38
69911;BME280;63555;49.920;17.868;2023-01-29T22:57:11;98989.94;;;-5.98;91.05
69911;BME280;63555;49.920;17.868;2023-01-29T23:02:12;98969.41;;;-5.98;90.96
69911;BME280;63555;49.920;17.868;2023-01-29T23:07:13;98951.44;;;-5.95;90.78
69911;BME280;63555;49.920;17.868;2023-01-29T23:12:13;98943.72;;;-5.94;90.66
69911;BME280;63555;49.920;17.868;2023-01-29T23:17:14;98936.00;;;-5.94;90.89
69911;BME280;63555;49.920;17.868;2023-01-29T23:22:14;98927.44;;;-5.90;91.17
69911;BME280;63555;49.920;17.868;2023-01-29T23:27:14;98918.81;;;-5.89;91.03
69911;BME280;63555;49.920;17.868;2023-01-29T23:32:18;98902.53;;;-5.85;91.12
69911;BME280;63555;49.920;17.868;2023-01-29T23:37:18;98896.41;;;-5.70;91.00
69911;BME280;63555;49.920;17.868;2023-01-29T23:42:19;98883.50;;;-5.61;91.33
69911;BME280;63555;49.920;17.868;2023-01-29T23:47:19;98874.81;;;-5.49;91.19
69911;BME280;63555;49.920;17.868;2023-01-29T23:52:19;98867.06;;;-5.45;91.21
69911;BME280;63555;49.920;17.868;2023-01-29T23:57:20;98853.25;;;-5.34;91.51
